KLBB/LBB METAR and TAF weather

Enter ICAO airport designator
Station Type Date Time Source
KLBB METAR 2019/08/25 19:53 UTC NOAA

KLBB 251953Z 23006KT 10SM FEW095 FEW250 37/12 A2985 RMK AO2 SLP043 T03720117


Station Type Date Time Source
KLBB Decoded METAR 2019/08/25 19:53 UTC NOAA

Station name not available
Aug 25, 2019 - 03:53 PM EDT / 2019.08.25 1953 UTC
Wind: from the SW (230 degrees) at 7 MPH (6 KT):0
Visibility: 10 mile(s):0
Sky conditions: mostly clear
Temperature: 99.0 F (37.2 C)
Heat index: 96.6 F (35.9 C):1
Dew Point: 53.1 F (11.7 C)
Relative Humidity: 21%
Pressure (altimeter): 29.85 in. Hg (1010 hPa)
ob: KLBB 251953Z 23006KT 10SM FEW095 FEW250 37/12 A2985 RMK AO2 SLP043 T03720117
cycle: 20

Station Type Date Time Source
KLBB TAF 2019/08/25 18:27 UTC NOAA

TAF KLBB 251725Z 2518/2618 VRB06KT P6SM SKC

Example: see airport list